sensor_id;sensor_type;location;lat;lon;timestamp;temperature;humidity
75719;DHT22;64340;48.534;-3.036;2023-06-10T00:01:23;19.90;83.00
75719;DHT22;64340;48.534;-3.036;2023-06-10T00:03:55;19.90;83.00
75719;DHT22;64340;48.534;-3.036;2023-06-10T00:06:25;19.90;83.00
75719;DHT22;64340;48.534;-3.036;2023-06-10T00:08:58;19.90;83.10
75719;DHT22;64340;48.534;-3.036;2023-06-10T00:11:36;19.90;83.00
75719;DHT22;64340;48.534;-3.036;2023-06-10T00:14:16;19.90;83.10
75719;DHT22;64340;48.534;-3.036;2023-06-10T00:16:42;19.90;83.10
75719;DHT22;64340;48.534;-3.036;2023-06-10T00:19:12;19.90;83.20
75719;DHT22;64340;48.534;-3.036;2023-06-10T00:21:44;19.90;83.10
75719;DHT22;64340;48.534;-3.036;2023-06-10T00:24:18;19.90;83.20
75719;DHT22;64340;48.534;-3.036;2023-06-10T00:26:52;19.90;83.20
75719;DHT22;64340;48.534;-3.036;2023-06-10T00:29:26;19.90;83.20
75719;DHT22;64340;48.534;-3.036;2023-06-10T00:31:58;19.90;83.20
75719;DHT22;64340;48.534;-3.036;2023-06-10T00:34:29;19.90;83.20
75719;DHT22;64340;48.534;-3.036;2023-06-10T00:37:06;19.90;83.20
75719;DHT22;64340;48.534;-3.036;2023-06-10T00:39:41;19.90;83.20
75719;DHT22;64340;48.534;-3.036;2023-06-10T00:42:10;19.90;83.20
75719;DHT22;64340;48.534;-3.036;2023-06-10T00:47:37;19.90;83.00
75719;DHT22;64340;48.534;-3.036;2023-06-10T00:50:28;19.80;83.20
75719;DHT22;64340;48.534;-3.036;2023-06-10T00:52:55;19.90;83.00
75719;DHT22;64340;48.534;-3.036;2023-06-10T00:55:26;19.80;83.00
75719;DHT22;64340;48.534;-3.036;2023-06-10T00:57:54;19.80;82.90
75719;DHT22;64340;48.534;-3.036;2023-06-10T01:00:23;19.90;82.90
75719;DHT22;64340;48.534;-3.036;2023-06-10T01:02:54;19.80;82.90
75719;DHT22;64340;48.534;-3.036;2023-06-10T01:05:21;19.90;82.90
75719;DHT22;64340;48.534;-3.036;2023-06-10T01:08:16;19.80;82.90
75719;DHT22;64340;48.534;-3.036;2023-06-10T01:11:25;19.80;82.90
75719;DHT22;64340;48.534;-3.036;2023-06-10T01:14:18;19.80;82.90
75719;DHT22;64340;48.534;-3.036;2023-06-10T01:16:49;19.80;82.90
75719;DHT22;64340;48.534;-3.036;2023-06-10T01:19:24;19.80;82.80
75719;DHT22;64340;48.534;-3.036;2023-06-10T01:21:53;19.80;82.80
75719;DHT22;64340;48.534;-3.036;2023-06-10T01:24:20;19.80;82.80
75719;DHT22;64340;48.534;-3.036;2023-06-10T01:26:59;19.70;82.80
75719;DHT22;64340;48.534;-3.036;2023-06-10T01:29:54;19.80;82.80
75719;DHT22;64340;48.534;-3.036;2023-06-10T01:32:37;19.70;82.80
75719;DHT22;64340;48.534;-3.036;2023-06-10T01:35:13;19.80;82.80
75719;DHT22;64340;48.534;-3.036;2023-06-10T01:37:56;19.70;82.70
75719;DHT22;64340;48.534;-3.036;2023-06-10T01:40:33;19.80;82.70
75719;DHT22;64340;48.534;-3.036;2023-06-10T01:43:10;19.70;82.80
75719;DHT22;64340;48.534;-3.036;2023-06-10T01:45:36;19.70;82.80
75719;DHT22;64340;48.534;-3.036;2023-06-10T01:48:13;19.70;82.80
75719;DHT22;64340;48.534;-3.036;2023-06-10T01:50:42;19.70;82.60
75719;DHT22;64340;48.534;-3.036;2023-06-10T01:53:11;19.70;82.60
75719;DHT22;64340;48.534;-3.036;2023-06-10T01:55:43;19.70;82.60
75719;DHT22;64340;48.534;-3.036;2023-06-10T01:58:12;19.70;82.80
75719;DHT22;64340;48.534;-3.036;2023-06-10T02:00:40;19.70;82.60
75719;DHT22;64340;48.534;-3.036;2023-06-10T02:03:09;19.70;82.50
75719;DHT22;64340;48.534;-3.036;2023-06-10T02:05:44;19.70;82.50
75719;DHT22;64340;48.534;-3.036;2023-06-10T02:08:20;19.70;82.50
75719;DHT22;64340;48.534;-3.036;2023-06-10T02:10:50;19.70;82.50
75719;DHT22;64340;48.534;-3.036;2023-06-10T02:13:44;19.70;82.50
75719;DHT22;64340;48.534;-3.036;2023-06-10T02:16:14;19.70;82.60
75719;DHT22;64340;48.534;-3.036;2023-06-10T02:18:49;19.70;82.60
75719;DHT22;64340;48.534;-3.036;2023-06-10T02:21:15;19.70;82.60
75719;DHT22;64340;48.534;-3.036;2023-06-10T02:23:47;19.70;82.50
75719;DHT22;64340;48.534;-3.036;2023-06-10T02:26:19;19.70;82.50
75719;DHT22;64340;48.534;-3.036;2023-06-10T02:28:51;19.70;82.40
75719;DHT22;64340;48.534;-3.036;2023-06-10T02:31:45;19.70;82.40
75719;DHT22;64340;48.534;-3.036;2023-06-10T02:34:17;19.70;82.40
75719;DHT22;64340;48.534;-3.036;2023-06-10T02:36:49;19.70;82.40
75719;DHT22;64340;48.534;-3.036;2023-06-10T02:39:38;19.70;82.40
75719;DHT22;64340;48.534;-3.036;2023-06-10T02:42:13;19.70;82.30
75719;DHT22;64340;48.534;-3.036;2023-06-10T02:44:42;19.70;82.30
75719;DHT22;64340;48.534;-3.036;2023-06-10T02:47:16;19.70;82.20
75719;DHT22;64340;48.534;-3.036;2023-06-10T02:50:00;19.70;82.40
75719;DHT22;64340;48.534;-3.036;2023-06-10T02:52:32;19.70;82.20
75719;DHT22;64340;48.534;-3.036;2023-06-10T02:55:03;19.70;82.40
75719;DHT22;64340;48.534;-3.036;2023-06-10T02:57:43;19.70;82.30
75719;DHT22;64340;48.534;-3.036;2023-06-10T03:00:25;19.70;82.40
75719;DHT22;64340;48.534;-3.036;2023-06-10T03:02:59;19.70;82.30
75719;DHT22;64340;48.534;-3.036;2023-06-10T03:05:51;19.70;82.20
75719;DHT22;64340;48.534;-3.036;2023-06-10T03:08:24;19.70;82.40
75719;DHT22;64340;48.534;-3.036;2023-06-10T03:10:50;19.70;82.30
75719;DHT22;64340;48.534;-3.036;2023-06-10T03:13:19;19.70;82.30
75719;DHT22;64340;48.534;-3.036;2023-06-10T03:15:46;19.70;82.30
75719;DHT22;64340;48.534;-3.036;2023-06-10T03:18:13;19.70;82.20
75719;DHT22;64340;48.534;-3.036;2023-06-10T03:20:39;19.70;82.30
75719;DHT22;64340;48.534;-3.036;2023-06-10T03:23:14;19.70;82.30
75719;DHT22;64340;48.534;-3.036;2023-06-10T03:25:44;19.70;82.20
75719;DHT22;64340;48.534;-3.036;2023-06-10T03:28:44;19.70;82.20
75719;DHT22;64340;48.534;-3.036;2023-06-10T03:31:11;19.70;82.10
75719;DHT22;64340;48.534;-3.036;2023-06-10T03:33:41;19.60;82.10
75719;DHT22;64340;48.534;-3.036;2023-06-10T03:36:08;19.60;82.10
75719;DHT22;64340;48.534;-3.036;2023-06-10T03:38:50;19.60;82.10
75719;DHT22;64340;48.534;-3.036;2023-06-10T03:41:25;19.60;82.10
75719;DHT22;64340;48.534;-3.036;2023-06-10T03:43:52;19.60;82.10
75719;DHT22;64340;48.534;-3.036;2023-06-10T03:46:21;19.60;82.10
75719;DHT22;64340;48.534;-3.036;2023-06-10T03:48:55;19.60;82.10
75719;DHT22;64340;48.534;-3.036;2023-06-10T03:51:24;19.60;82.10
75719;DHT22;64340;48.534;-3.036;2023-06-10T03:53:53;19.60;82.20
75719;DHT22;64340;48.534;-3.036;2023-06-10T03:56:26;19.60;82.10
75719;DHT22;64340;48.534;-3.036;2023-06-10T03:59:27;19.60;82.10
75719;DHT22;64340;48.534;-3.036;2023-06-10T04:02:02;19.60;82.10
75719;DHT22;64340;48.534;-3.036;2023-06-10T04:04:32;19.50;82.00
75719;DHT22;64340;48.534;-3.036;2023-06-10T04:07:05;19.50;82.00
75719;DHT22;64340;48.534;-3.036;2023-06-10T04:09:52;19.50;82.10
75719;DHT22;64340;48.534;-3.036;2023-06-10T04:12:25;19.50;82.10
75719;DHT22;64340;48.534;-3.036;2023-06-10T04:14:58;19.50;82.00
75719;DHT22;64340;48.534;-3.036;2023-06-10T04:17:32;19.60;82.00
75719;DHT22;64340;48.534;-3.036;2023-06-10T04:20:00;19.60;82.00
75719;DHT22;64340;48.534;-3.036;2023-06-10T04:22:41;19.60;81.90
75719;DHT22;64340;48.534;-3.036;2023-06-10T04:25:11;19.60;82.00
75719;DHT22;64340;48.534;-3.036;2023-06-10T04:27:50;19.50;81.90
75719;DHT22;64340;48.534;-3.036;2023-06-10T04:30:27;19.60;82.00
75719;DHT22;64340;48.534;-3.036;2023-06-10T04:32:55;19.50;81.90
75719;DHT22;64340;48.534;-3.036;2023-06-10T04:35:32;19.50;81.90
75719;DHT22;64340;48.534;-3.036;2023-06-10T04:38:10;19.50;81.90
75719;DHT22;64340;48.534;-3.036;2023-06-10T04:40:50;19.50;81.90
75719;DHT22;64340;48.534;-3.036;2023-06-10T04:43:18;19.50;81.80
75719;DHT22;64340;48.534;-3.036;2023-06-10T04:45:50;19.50;81.90
75719;DHT22;64340;48.534;-3.036;2023-06-10T04:48:24;19.50;81.70
75719;DHT22;64340;48.534;-3.036;2023-06-10T04:50:56;19.50;81.80
75719;DHT22;64340;48.534;-3.036;2023-06-10T04:53:35;19.50;81.70
75719;DHT22;64340;48.534;-3.036;2023-06-10T04:59:00;19.50;81.80
75719;DHT22;64340;48.534;-3.036;2023-06-10T05:01:31;19.50;81.80
75719;DHT22;64340;48.534;-3.036;2023-06-10T05:04:00;19.50;81.80
75719;DHT22;64340;48.534;-3.036;2023-06-10T05:06:31;19.50;81.80
75719;DHT22;64340;48.534;-3.036;2023-06-10T05:09:05;19.50;81.70
75719;DHT22;64340;48.534;-3.036;2023-06-10T05:11:34;19.50;81.70
75719;DHT22;64340;48.534;-3.036;2023-06-10T05:14:07;19.50;81.80
75719;DHT22;64340;48.534;-3.036;2023-06-10T05:16:42;19.50;81.80
75719;DHT22;64340;48.534;-3.036;2023-06-10T05:19:22;19.50;81.80
75719;DHT22;64340;48.534;-3.036;2023-06-10T05:22:13;19.50;81.80
75719;DHT22;64340;48.534;-3.036;2023-06-10T05:24:46;19.60;81.70
75719;DHT22;64340;48.534;-3.036;2023-06-10T05:27:20;19.50;81.70
75719;DHT22;64340;48.534;-3.036;2023-06-10T05:29:51;19.50;81.70
75719;DHT22;64340;48.534;-3.036;2023-06-10T05:32:20;19.60;81.70
75719;DHT22;64340;48.534;-3.036;2023-06-10T05:34:45;19.60;81.70
75719;DHT22;64340;48.534;-3.036;2023-06-10T05:37:14;19.60;81.70
75719;DHT22;64340;48.534;-3.036;2023-06-10T05:40:15;19.50;81.70
75719;DHT22;64340;48.534;-3.036;2023-06-10T05:42:49;19.60;81.70
75719;DHT22;64340;48.534;-3.036;2023-06-10T05:45:24;19.60;81.70
75719;DHT22;64340;48.534;-3.036;2023-06-10T05:47:52;19.60;81.70
75719;DHT22;64340;48.534;-3.036;2023-06-10T05:50:19;19.60;81.70
75719;DHT22;64340;48.534;-3.036;2023-06-10T05:52:47;19.60;81.60
75719;DHT22;64340;48.534;-3.036;2023-06-10T05:55:21;19.60;81.60
75719;DHT22;64340;48.534;-3.036;2023-06-10T05:57:49;19.60;81.60
75719;DHT22;64340;48.534;-3.036;2023-06-10T06:00:32;19.60;81.50
75719;DHT22;64340;48.534;-3.036;2023-06-10T06:03:01;19.70;81.50
75719;DHT22;64340;48.534;-3.036;2023-06-10T06:05:33;19.60;81.50
75719;DHT22;64340;48.534;-3.036;2023-06-10T06:08:04;19.60;81.50
75719;DHT22;64340;48.534;-3.036;2023-06-10T06:10:33;19.70;81.50
75719;DHT22;64340;48.534;-3.036;2023-06-10T06:13:34;19.70;81.50
75719;DHT22;64340;48.534;-3.036;2023-06-10T06:16:03;19.70;81.40
75719;DHT22;64340;48.534;-3.036;2023-06-10T06:18:29;19.70;81.40
75719;DHT22;64340;48.534;-3.036;2023-06-10T06:21:00;19.70;81.40
75719;DHT22;64340;48.534;-3.036;2023-06-10T06:23:35;19.70;81.40
75719;DHT22;64340;48.534;-3.036;2023-06-10T06:26:04;19.70;81.30
75719;DHT22;64340;48.534;-3.036;2023-06-10T06:28:38;19.70;81.30
75719;DHT22;64340;48.534;-3.036;2023-06-10T06:31:07;19.70;81.20
75719;DHT22;64340;48.534;-3.036;2023-06-10T06:33:52;19.70;81.20
75719;DHT22;64340;48.534;-3.036;2023-06-10T06:36:26;19.70;81.20
75719;DHT22;64340;48.534;-3.036;2023-06-10T06:38:55;19.70;81.30
75719;DHT22;64340;48.534;-3.036;2023-06-10T06:44:06;19.70;81.20
75719;DHT22;64340;48.534;-3.036;2023-06-10T06:49:27;19.70;81.20
75719;DHT22;64340;48.534;-3.036;2023-06-10T06:52:01;19.70;81.20
75719;DHT22;64340;48.534;-3.036;2023-06-10T06:54:38;19.70;81.10
75719;DHT22;64340;48.534;-3.036;2023-06-10T06:57:23;19.70;81.10
75719;DHT22;64340;48.534;-3.036;2023-06-10T06:59:52;19.70;82.20
75719;DHT22;64340;48.534;-3.036;2023-06-10T07:02:44;19.70;83.00
75719;DHT22;64340;48.534;-3.036;2023-06-10T07:05:16;19.70;83.20
75719;DHT22;64340;48.534;-3.036;2023-06-10T07:07:45;19.70;84.00
75719;DHT22;64340;48.534;-3.036;2023-06-10T07:10:30;19.50;84.40
75719;DHT22;64340;48.534;-3.036;2023-06-10T07:12:56;19.50;84.00
75719;DHT22;64340;48.534;-3.036;2023-06-10T07:15:25;19.50;84.10
75719;DHT22;64340;48.534;-3.036;2023-06-10T07:18:01;19.50;84.20
75719;DHT22;64340;48.534;-3.036;2023-06-10T07:20:29;19.50;83.70
75719;DHT22;64340;48.534;-3.036;2023-06-10T07:23:06;19.50;83.90
75719;DHT22;64340;48.534;-3.036;2023-06-10T07:25:53;19.50;84.00
75719;DHT22;64340;48.534;-3.036;2023-06-10T07:28:29;19.50;84.10
75719;DHT22;64340;48.534;-3.036;2023-06-10T07:31:04;19.50;84.10
75719;DHT22;64340;48.534;-3.036;2023-06-10T07:33:42;19.50;83.20
75719;DHT22;64340;48.534;-3.036;2023-06-10T07:36:09;19.50;83.50
75719;DHT22;64340;48.534;-3.036;2023-06-10T07:38:35;19.60;84.60
75719;DHT22;64340;48.534;-3.036;2023-06-10T07:41:02;19.60;84.60
75719;DHT22;64340;48.534;-3.036;2023-06-10T07:43:30;19.60;84.90
75719;DHT22;64340;48.534;-3.036;2023-06-10T07:45:59;19.60;84.60
75719;DHT22;64340;48.534;-3.036;2023-06-10T07:48:25;19.70;84.10
75719;DHT22;64340;48.534;-3.036;2023-06-10T07:50:57;19.60;83.80
75719;DHT22;64340;48.534;-3.036;2023-06-10T07:53:26;19.60;84.20
75719;DHT22;64340;48.534;-3.036;2023-06-10T07:55:53;19.50;84.60
75719;DHT22;64340;48.534;-3.036;2023-06-10T07:58:25;19.60;84.40
75719;DHT22;64340;48.534;-3.036;2023-06-10T08:00:57;19.60;84.80
75719;DHT22;64340;48.534;-3.036;2023-06-10T08:03:26;19.70;84.70
75719;DHT22;64340;48.534;-3.036;2023-06-10T08:05:52;19.70;84.80
75719;DHT22;64340;48.534;-3.036;2023-06-10T08:08:21;19.70;84.70
75719;DHT22;64340;48.534;-3.036;2023-06-10T08:10:50;19.70;84.30
75719;DHT22;64340;48.534;-3.036;2023-06-10T08:13:24;19.70;84.20
75719;DHT22;64340;48.534;-3.036;2023-06-10T08:15:50;19.70;84.20
75719;DHT22;64340;48.534;-3.036;2023-06-10T08:18:19;19.70;84.40
75719;DHT22;64340;48.534;-3.036;2023-06-10T08:20:59;19.70;84.00
75719;DHT22;64340;48.534;-3.036;2023-06-10T08:23:25;19.80;84.50
75719;DHT22;64340;48.534;-3.036;2023-06-10T08:25:52;19.80;84.10
75719;DHT22;64340;48.534;-3.036;2023-06-10T08:28:27;19.80;84.30
75719;DHT22;64340;48.534;-3.036;2023-06-10T08:30:58;19.80;84.40
75719;DHT22;64340;48.534;-3.036;2023-06-10T08:33:24;19.90;84.20
75719;DHT22;64340;48.534;-3.036;2023-06-10T08:35:53;19.90;84.30
75719;DHT22;64340;48.534;-3.036;2023-06-10T08:38:22;19.90;84.30
75719;DHT22;64340;48.534;-3.036;2023-06-10T08:40:59;19.90;83.90
75719;DHT22;64340;48.534;-3.036;2023-06-10T08:43:54;19.90;84.10
75719;DHT22;64340;48.534;-3.036;2023-06-10T08:46:31;20.00;84.20
75719;DHT22;64340;48.534;-3.036;2023-06-10T08:49:05;20.00;83.80
75719;DHT22;64340;48.534;-3.036;2023-06-10T08:51:40;20.10;83.50
75719;DHT22;64340;48.534;-3.036;2023-06-10T08:54:30;20.10;83.30
75719;DHT22;64340;48.534;-3.036;2023-06-10T08:57:02;20.10;83.20
75719;DHT22;64340;48.534;-3.036;2023-06-10T08:59:37;20.10;83.00
75719;DHT22;64340;48.534;-3.036;2023-06-10T09:02:14;20.10;83.20
75719;DHT22;64340;48.534;-3.036;2023-06-10T09:04:49;20.10;83.20
75719;DHT22;64340;48.534;-3.036;2023-06-10T09:07:19;20.20;83.10
75719;DHT22;64340;48.534;-3.036;2023-06-10T09:09:50;20.10;83.20
75719;DHT22;64340;48.534;-3.036;2023-06-10T09:12:21;20.20;83.20
75719;DHT22;64340;48.534;-3.036;2023-06-10T09:14:50;20.30;83.10
75719;DHT22;64340;48.534;-3.036;2023-06-10T09:17:19;20.30;83.00
75719;DHT22;64340;48.534;-3.036;2023-06-10T09:19:46;20.20;82.90
75719;DHT22;64340;48.534;-3.036;2023-06-10T09:22:13;20.20;83.10
75719;DHT22;64340;48.534;-3.036;2023-06-10T09:24:46;20.10;83.40
75719;DHT22;64340;48.534;-3.036;2023-06-10T09:27:15;20.10;83.50
75719;DHT22;64340;48.534;-3.036;2023-06-10T09:29:54;20.00;83.40
75719;DHT22;64340;48.534;-3.036;2023-06-10T09:32:24;20.00;83.70
75719;DHT22;64340;48.534;-3.036;2023-06-10T09:34:53;20.00;83.40
75719;DHT22;64340;48.534;-3.036;2023-06-10T09:37:26;20.00;83.50
75719;DHT22;64340;48.534;-3.036;2023-06-10T09:40:05;20.10;83.30
75719;DHT22;64340;48.534;-3.036;2023-06-10T09:42:33;20.10;83.40
75719;DHT22;64340;48.534;-3.036;2023-06-10T09:45:06;20.10;83.60
75719;DHT22;64340;48.534;-3.036;2023-06-10T09:47:33;20.20;83.40
75719;DHT22;64340;48.534;-3.036;2023-06-10T09:49:59;20.30;83.20
75719;DHT22;64340;48.534;-3.036;2023-06-10T09:52:26;20.30;83.00
75719;DHT22;64340;48.534;-3.036;2023-06-10T09:54:53;20.30;82.80
75719;DHT22;64340;48.534;-3.036;2023-06-10T09:57:22;20.30;82.50
75719;DHT22;64340;48.534;-3.036;2023-06-10T09:59:52;20.30;82.30
75719;DHT22;64340;48.534;-3.036;2023-06-10T10:02:19;20.30;82.10
75719;DHT22;64340;48.534;-3.036;2023-06-10T10:04:47;20.30;82.30
75719;DHT22;64340;48.534;-3.036;2023-06-10T10:07:13;20.30;82.30
75719;DHT22;64340;48.534;-3.036;2023-06-10T10:09:41;20.30;82.10
75719;DHT22;64340;48.534;-3.036;2023-06-10T10:12:14;20.30;82.00
75719;DHT22;64340;48.534;-3.036;2023-06-10T10:14:47;20.40;82.10
75719;DHT22;64340;48.534;-3.036;2023-06-10T10:17:15;20.50;81.80
75719;DHT22;64340;48.534;-3.036;2023-06-10T10:19:53;20.50;81.50
75719;DHT22;64340;48.534;-3.036;2023-06-10T10:22:26;20.50;81.30
75719;DHT22;64340;48.534;-3.036;2023-06-10T10:25:02;20.60;81.10
75719;DHT22;64340;48.534;-3.036;2023-06-10T10:27:35;20.60;80.90
75719;DHT22;64340;48.534;-3.036;2023-06-10T10:30:05;20.60;80.80
75719;DHT22;64340;48.534;-3.036;2023-06-10T10:33:28;20.60;80.80
75719;DHT22;64340;48.534;-3.036;2023-06-10T10:35:43;20.60;80.30
75719;DHT22;64340;48.534;-3.036;2023-06-10T10:38:21;20.60;80.60
75719;DHT22;64340;48.534;-3.036;2023-06-10T10:40:47;20.70;80.40
75719;DHT22;64340;48.534;-3.036;2023-06-10T10:43:28;20.70;80.30
75719;DHT22;64340;48.534;-3.036;2023-06-10T10:46:10;20.70;80.10
75719;DHT22;64340;48.534;-3.036;2023-06-10T10:48:43;20.80;80.00
75719;DHT22;64340;48.534;-3.036;2023-06-10T10:51:16;20.80;79.80
75719;DHT22;64340;48.534;-3.036;2023-06-10T10:53:47;20.80;79.80
75719;DHT22;64340;48.534;-3.036;2023-06-10T10:56:42;20.80;79.70
75719;DHT22;64340;48.534;-3.036;2023-06-10T11:02:32;21.00;79.70
75719;DHT22;64340;48.534;-3.036;2023-06-10T11:09:00;21.00;77.30
75719;DHT22;64340;48.534;-3.036;2023-06-10T11:16:28;21.30;78.60
75719;DHT22;64340;48.534;-3.036;2023-06-10T11:18:56;21.30;79.30
75719;DHT22;64340;48.534;-3.036;2023-06-10T11:21:29;21.30;77.80
75719;DHT22;64340;48.534;-3.036;2023-06-10T11:23:58;21.30;77.50
75719;DHT22;64340;48.534;-3.036;2023-06-10T11:31:38;21.50;79.40
75719;DHT22;64340;48.534;-3.036;2023-06-10T11:34:06;21.50;78.70
75719;DHT22;64340;48.534;-3.036;2023-06-10T11:36:34;21.50;79.30
75719;DHT22;64340;48.534;-3.036;2023-06-10T11:39:05;21.50;79.30
75719;DHT22;64340;48.534;-3.036;2023-06-10T11:41:32;21.50;79.00
75719;DHT22;64340;48.534;-3.036;2023-06-10T11:44:05;21.50;79.60
75719;DHT22;64340;48.534;-3.036;2023-06-10T11:46:33;21.60;77.50
75719;DHT22;64340;48.534;-3.036;2023-06-10T11:49:00;21.60;78.10
75719;DHT22;64340;48.534;-3.036;2023-06-10T11:51:36;21.70;78.50
75719;DHT22;64340;48.534;-3.036;2023-06-10T11:54:04;21.70;76.40
75719;DHT22;64340;48.534;-3.036;2023-06-10T11:56:34;21.80;78.60
75719;DHT22;64340;48.534;-3.036;2023-06-10T11:59:07;21.90;78.60
75719;DHT22;64340;48.534;-3.036;2023-06-10T12:01:38;21.90;78.10
75719;DHT22;64340;48.534;-3.036;2023-06-10T12:04:09;21.80;79.10
75719;DHT22;64340;48.534;-3.036;2023-06-10T12:06:53;21.80;78.90
75719;DHT22;64340;48.534;-3.036;2023-06-10T12:09:21;21.80;79.50
75719;DHT22;64340;48.534;-3.036;2023-06-10T12:12:00;21.90;78.80
75719;DHT22;64340;48.534;-3.036;2023-06-10T12:19:49;21.90;78.70
75719;DHT22;64340;48.534;-3.036;2023-06-10T12:22:15;21.90;78.90
75719;DHT22;64340;48.534;-3.036;2023-06-10T12:24:46;22.10;78.80
75719;DHT22;64340;48.534;-3.036;2023-06-10T12:27:22;22.30;78.10
75719;DHT22;64340;48.534;-3.036;2023-06-10T12:29:53;22.20;76.50
75719;DHT22;64340;48.534;-3.036;2023-06-10T12:32:19;22.20;77.00
75719;DHT22;64340;48.534;-3.036;2023-06-10T12:34:48;22.20;77.00
75719;DHT22;64340;48.534;-3.036;2023-06-10T12:37:14;22.10;76.40
75719;DHT22;64340;48.534;-3.036;2023-06-10T12:39:51;22.10;75.00
75719;DHT22;64340;48.534;-3.036;2023-06-10T12:42:22;22.10;76.30
75719;DHT22;64340;48.534;-3.036;2023-06-10T12:44:52;22.20;76.60
75719;DHT22;64340;48.534;-3.036;2023-06-10T12:47:34;22.30;76.60
75719;DHT22;64340;48.534;-3.036;2023-06-10T12:50:12;22.50;75.10
75719;DHT22;64340;48.534;-3.036;2023-06-10T12:52:38;22.60;72.40
75719;DHT22;64340;48.534;-3.036;2023-06-10T12:55:08;22.60;72.30
75719;DHT22;64340;48.534;-3.036;2023-06-10T12:57:38;22.50;72.50
75719;DHT22;64340;48.534;-3.036;2023-06-10T13:00:33;22.50;73.30
75719;DHT22;64340;48.534;-3.036;2023-06-10T13:03:01;22.40;72.50
75719;DHT22;64340;48.534;-3.036;2023-06-10T13:05:28;22.50;73.10
75719;DHT22;64340;48.534;-3.036;2023-06-10T13:08:00;22.40;73.40
75719;DHT22;64340;48.534;-3.036;2023-06-10T13:10:33;22.30;73.80
75719;DHT22;64340;48.534;-3.036;2023-06-10T13:13:01;22.30;74.30
75719;DHT22;64340;48.534;-3.036;2023-06-10T13:15:28;22.20;74.00
75719;DHT22;64340;48.534;-3.036;2023-06-10T13:17:54;22.20;73.90
75719;DHT22;64340;48.534;-3.036;2023-06-10T13:20:26;22.20;74.40
75719;DHT22;64340;48.534;-3.036;2023-06-10T13:22:55;22.30;73.10
75719;DHT22;64340;48.534;-3.036;2023-06-10T13:25:21;22.30;74.10
75719;DHT22;64340;48.534;-3.036;2023-06-10T13:27:50;22.30;72.50
75719;DHT22;64340;48.534;-3.036;2023-06-10T13:30:21;22.30;73.90
75719;DHT22;64340;48.534;-3.036;2023-06-10T13:32:51;22.40;73.90
75719;DHT22;64340;48.534;-3.036;2023-06-10T13:35:23;22.50;72.30
75719;DHT22;64340;48.534;-3.036;2023-06-10T13:37:54;22.50;72.90
75719;DHT22;64340;48.534;-3.036;2023-06-10T13:40:20;22.40;72.80
75719;DHT22;64340;48.534;-3.036;2023-06-10T13:42:47;22.30;73.70
75719;DHT22;64340;48.534;-3.036;2023-06-10T13:45:16;22.30;74.20
75719;DHT22;64340;48.534;-3.036;2023-06-10T13:47:43;22.30;73.50
75719;DHT22;64340;48.534;-3.036;2023-06-10T13:50:09;22.40;74.40
75719;DHT22;64340;48.534;-3.036;2023-06-10T13:52:35;22.50;74.60
75719;DHT22;64340;48.534;-3.036;2023-06-10T13:55:14;22.50;74.60
75719;DHT22;64340;48.534;-3.036;2023-06-10T13:57:43;22.50;74.80
75719;DHT22;64340;48.534;-3.036;2023-06-10T14:00:16;22.50;75.00
75719;DHT22;64340;48.534;-3.036;2023-06-10T14:02:43;22.50;75.00
75719;DHT22;64340;48.534;-3.036;2023-06-10T14:05:10;22.60;75.10
75719;DHT22;64340;48.534;-3.036;2023-06-10T14:07:37;22.60;75.20
75719;DHT22;64340;48.534;-3.036;2023-06-10T14:10:09;22.60;75.30
75719;DHT22;64340;48.534;-3.036;2023-06-10T14:12:35;22.60;75.70
75719;DHT22;64340;48.534;-3.036;2023-06-10T14:15:02;22.50;76.20
75719;DHT22;64340;48.534;-3.036;2023-06-10T14:17:30;22.50;76.70
75719;DHT22;64340;48.534;-3.036;2023-06-10T14:19:56;22.50;76.70
75719;DHT22;64340;48.534;-3.036;2023-06-10T14:22:22;22.50;76.50
75719;DHT22;64340;48.534;-3.036;2023-06-10T14:24:48;22.50;76.80
75719;DHT22;64340;48.534;-3.036;2023-06-10T14:27:13;22.50;76.90
75719;DHT22;64340;48.534;-3.036;2023-06-10T14:29:40;22.50;76.70
75719;DHT22;64340;48.534;-3.036;2023-06-10T14:32:06;22.50;76.90
75719;DHT22;64340;48.534;-3.036;2023-06-10T14:34:34;22.50;76.90
75719;DHT22;64340;48.534;-3.036;2023-06-10T14:37:01;22.50;77.40
75719;DHT22;64340;48.534;-3.036;2023-06-10T14:39:28;22.60;77.50
75719;DHT22;64340;48.534;-3.036;2023-06-10T14:41:54;22.60;77.20
75719;DHT22;64340;48.534;-3.036;2023-06-10T14:44:20;22.60;77.30
75719;DHT22;64340;48.534;-3.036;2023-06-10T14:46:46;22.60;77.30
75719;DHT22;64340;48.534;-3.036;2023-06-10T14:49:13;22.60;77.40
75719;DHT22;64340;48.534;-3.036;2023-06-10T14:51:39;22.60;77.60
75719;DHT22;64340;48.534;-3.036;2023-06-10T14:54:05;22.50;77.70
75719;DHT22;64340;48.534;-3.036;2023-06-10T14:56:31;22.50;77.80
75719;DHT22;64340;48.534;-3.036;2023-06-10T14:58:57;22.50;77.60
75719;DHT22;64340;48.534;-3.036;2023-06-10T15:01:23;22.50;77.60
75719;DHT22;64340;48.534;-3.036;2023-06-10T15:03:50;22.50;77.80
75719;DHT22;64340;48.534;-3.036;2023-06-10T15:06:16;22.50;77.60
75719;DHT22;64340;48.534;-3.036;2023-06-10T15:08:46;22.50;77.60
75719;DHT22;64340;48.534;-3.036;2023-06-10T15:11:14;22.50;77.50
75719;DHT22;64340;48.534;-3.036;2023-06-10T15:13:43;22.60;78.30
75719;DHT22;64340;48.534;-3.036;2023-06-10T15:16:18;22.60;77.50
75719;DHT22;64340;48.534;-3.036;2023-06-10T15:18:44;22.70;78.90
75719;DHT22;64340;48.534;-3.036;2023-06-10T15:21:11;22.70;78.90
75719;DHT22;64340;48.534;-3.036;2023-06-10T15:23:40;22.70;78.50
75719;DHT22;64340;48.534;-3.036;2023-06-10T15:26:06;22.60;78.00
75719;DHT22;64340;48.534;-3.036;2023-06-10T15:28:32;22.60;78.40
75719;DHT22;64340;48.534;-3.036;2023-06-10T15:30:59;22.60;78.50
75719;DHT22;64340;48.534;-3.036;2023-06-10T15:33:25;22.60;78.40
75719;DHT22;64340;48.534;-3.036;2023-06-10T15:35:51;22.60;78.40
75719;DHT22;64340;48.534;-3.036;2023-06-10T15:38:18;22.60;78.30
75719;DHT22;64340;48.534;-3.036;2023-06-10T15:40:44;22.70;78.00
75719;DHT22;64340;48.534;-3.036;2023-06-10T15:43:11;22.70;77.50
75719;DHT22;64340;48.534;-3.036;2023-06-10T15:45:38;22.70;77.40
75719;DHT22;64340;48.534;-3.036;2023-06-10T15:48:06;22.70;77.10
75719;DHT22;64340;48.534;-3.036;2023-06-10T15:50:32;22.70;76.50
75719;DHT22;64340;48.534;-3.036;2023-06-10T15:52:58;22.70;76.70
75719;DHT22;64340;48.534;-3.036;2023-06-10T15:55:23;22.70;76.60
75719;DHT22;64340;48.534;-3.036;2023-06-10T15:57:51;22.60;76.30
75719;DHT22;64340;48.534;-3.036;2023-06-10T16:00:17;22.60;76.60
75719;DHT22;64340;48.534;-3.036;2023-06-10T16:02:43;22.60;76.80
75719;DHT22;64340;48.534;-3.036;2023-06-10T16:05:11;22.50;77.10
75719;DHT22;64340;48.534;-3.036;2023-06-10T16:07:37;22.60;77.20
75719;DHT22;64340;48.534;-3.036;2023-06-10T16:10:04;22.50;77.40
75719;DHT22;64340;48.534;-3.036;2023-06-10T16:12:29;22.50;77.50
75719;DHT22;64340;48.534;-3.036;2023-06-10T16:14:55;22.50;77.50
75719;DHT22;64340;48.534;-3.036;2023-06-10T16:17:21;22.50;77.60
75719;DHT22;64340;48.534;-3.036;2023-06-10T16:19:47;22.40;77.20